createdAt,value
2018-11-29T00:00:39.740Z,1.90
2018-11-29T00:03:09.051Z,1.70
2018-11-29T00:05:37.452Z,1.70
2018-11-29T00:10:33.993Z,0.90
2018-11-29T00:13:02.345Z,1.70
2018-11-29T00:15:30.638Z,1.70
2018-11-29T00:17:58.947Z,1.60
2018-11-29T00:20:27.292Z,1.70
2018-11-29T00:22:55.448Z,1.50
2018-11-29T00:25:23.723Z,1.50
2018-11-29T00:27:52.177Z,1.50
2018-11-29T00:30:22.693Z,1.50
2018-11-29T00:32:51.972Z,1.40
2018-11-29T00:35:20.488Z,1.40
2018-11-29T00:37:48.856Z,1.30
2018-11-29T00:40:20.761Z,1.40
2018-11-29T00:42:48.988Z,1.40
2018-11-29T00:45:19.812Z,1.40
2018-11-29T00:47:48.322Z,1.40
2018-11-29T00:50:17.254Z,1.40
2018-11-29T00:52:52.163Z,1.50
2018-11-29T00:55:21.273Z,1.40
2018-11-29T00:57:49.592Z,1.00
2018-11-29T01:00:19.675Z,1.50
2018-11-29T01:02:47.970Z,1.50
2018-11-29T01:05:16.284Z,0.00
2018-11-29T01:07:44.630Z,1.10
2018-11-29T01:10:15.589Z,1.40
2018-11-29T01:12:44.391Z,1.40
2018-11-29T01:20:11.018Z,1.40
2018-11-29T01:22:39.338Z,1.40
2018-11-29T01:25:08.986Z,1.40
2018-11-29T01:27:37.203Z,1.40
2018-11-29T01:30:09.305Z,1.30
2018-11-29T01:32:37.729Z,1.30
2018-11-29T01:35:06.491Z,1.30
2018-11-29T01:37:35.123Z,1.40
2018-11-29T01:40:03.717Z,1.40
2018-11-29T01:42:32.203Z,1.40
2018-11-29T01:45:00.733Z,1.40
2018-11-29T01:47:29.061Z,1.40
2018-11-29T01:52:25.346Z,1.40
2018-11-29T01:54:53.673Z,1.40
2018-11-29T01:57:22.071Z,1.40
2018-11-29T01:59:50.391Z,1.40
2018-11-29T02:02:18.688Z,1.30
2018-11-29T02:04:47.011Z,1.30
2018-11-29T02:07:15.296Z,1.20
2018-11-29T02:09:43.520Z,1.20
2018-11-29T02:12:11.767Z,1.10
2018-11-29T02:14:40.126Z,1.00
2018-11-29T02:19:36.502Z,1.20
2018-11-29T02:27:01.007Z,1.10
2018-11-29T02:29:29.213Z,1.00
2018-11-29T02:31:57.431Z,1.10
2018-11-29T02:34:25.730Z,1.10
2018-11-29T02:36:54.014Z,1.00
2018-11-29T02:39:22.252Z,1.10
2018-11-29T02:41:50.635Z,1.20
2018-11-29T02:44:18.923Z,1.10
2018-11-29T02:46:47.188Z,1.00
2018-11-29T02:49:15.427Z,1.00
2018-11-29T02:51:43.597Z,1.10
2018-11-29T02:56:39.844Z,1.00
2018-11-29T02:59:08.094Z,1.00
2018-11-29T03:04:04.399Z,1.00
2018-11-29T03:06:32.645Z,1.00
2018-11-29T03:09:00.972Z,1.00
2018-11-29T03:11:29.351Z,0.90
2018-11-29T03:13:57.692Z,1.00
2018-11-29T03:16:26.014Z,0.90
2018-11-29T03:21:22.442Z,0.90
2018-11-29T03:26:18.896Z,0.90
2018-11-29T03:28:47.182Z,0.80
2018-11-29T03:31:15.500Z,0.90
2018-11-29T03:33:43.767Z,0.80
2018-11-29T03:36:12.026Z,0.80
2018-11-29T03:38:40.364Z,0.80
2018-11-29T03:41:08.681Z,0.80
2018-11-29T03:43:37.042Z,0.80
2018-11-29T03:46:05.644Z,0.90
2018-11-29T03:48:33.890Z,0.80
2018-11-29T03:51:02.222Z,0.80
2018-11-29T03:53:30.510Z,0.80
2018-11-29T03:58:26.862Z,0.80
2018-11-29T04:00:55.141Z,0.80
2018-11-29T04:03:23.490Z,0.70
2018-11-29T04:05:51.847Z,0.80
2018-11-29T04:08:20.223Z,0.70
2018-11-29T04:10:48.707Z,0.60
2018-11-29T04:13:17.066Z,-0.60
2018-11-29T04:18:13.433Z,0.60
2018-11-29T04:25:37.806Z,0.60
2018-11-29T04:28:06.269Z,0.50
2018-11-29T04:30:34.505Z,0.60
2018-11-29T04:33:02.770Z,0.50
2018-11-29T04:35:31.030Z,0.50
2018-11-29T04:37:59.359Z,0.40
2018-11-29T04:40:27.650Z,0.80
2018-11-29T04:42:55.905Z,0.90
2018-11-29T04:45:24.214Z,0.80
2018-11-29T04:47:52.473Z,0.80
2018-11-29T04:50:20.730Z,0.70
2018-11-29T04:52:48.982Z,0.60
2018-11-29T04:55:17.246Z,0.50
2018-11-29T04:57:45.501Z,0.50
2018-11-29T05:00:14.763Z,0.40
2018-11-29T05:02:43.225Z,0.30
2018-11-29T05:05:12.265Z,0.30
2018-11-29T05:10:10.121Z,0.20
2018-11-29T05:12:38.480Z,0.40
2018-11-29T05:15:08.550Z,0.30
2018-11-29T05:20:05.790Z,0.20
2018-11-29T05:27:30.174Z,0.20
2018-11-29T05:29:58.442Z,0.20
2018-11-29T05:34:54.641Z,0.30
2018-11-29T05:37:22.920Z,0.30
2018-11-29T05:39:51.133Z,0.30
2018-11-29T05:42:19.404Z,0.30
2018-11-29T05:44:47.664Z,0.30
2018-11-29T05:47:15.975Z,0.30
2018-11-29T05:49:44.307Z,0.30
2018-11-29T05:54:40.645Z,0.20
2018-11-29T05:57:08.958Z,0.20
2018-11-29T05:59:37.262Z,0.30
2018-11-29T06:02:05.612Z,0.30
2018-11-29T06:04:33.889Z,0.20
2018-11-29T06:07:02.060Z,0.20
2018-11-29T06:09:30.297Z,0.20
2018-11-29T06:11:58.613Z,0.20
2018-11-29T06:14:26.838Z,0.30
2018-11-29T06:21:51.164Z,0.00
2018-11-29T06:24:19.455Z,0.00
2018-11-29T06:26:47.719Z,0.00
2018-11-29T06:29:15.916Z,0.10
2018-11-29T06:31:44.145Z,-0.10
2018-11-29T06:34:12.506Z,-0.20
2018-11-29T06:36:40.675Z,-0.20
2018-11-29T06:39:09.416Z,-0.20
2018-11-29T06:41:37.652Z,-0.30
2018-11-29T06:46:33.930Z,-0.30
2018-11-29T06:49:02.243Z,-0.40
2018-11-29T06:51:30.535Z,-0.40
2018-11-29T06:53:59.588Z,-0.40
2018-11-29T06:56:27.906Z,-0.40
2018-11-29T06:58:56.164Z,-0.30
2018-11-29T07:01:24.441Z,-0.40
2018-11-29T07:03:52.763Z,-0.30
2018-11-29T07:06:21.012Z,-0.30
2018-11-29T07:08:49.376Z,-1.00
2018-11-29T07:11:17.615Z,-0.40
2018-11-29T07:23:43.558Z,-0.10
2018-11-29T07:26:11.946Z,0.00
2018-11-29T07:28:40.166Z,0.00
2018-11-29T07:31:08.427Z,0.10
2018-11-29T07:33:36.700Z,0.10
2018-11-29T07:36:05.402Z,0.20
2018-11-29T07:38:33.643Z,0.40
2018-11-29T07:41:01.838Z,0.40
2018-11-29T07:43:30.070Z,0.50
2018-11-29T07:48:26.781Z,0.80
2018-11-29T07:50:55.328Z,0.90
2018-11-29T07:53:23.565Z,0.90
2018-11-29T07:55:51.793Z,1.00
2018-11-29T07:58:20.049Z,1.00
2018-11-29T08:00:48.251Z,1.10
2018-11-29T08:03:16.501Z,1.20
2018-11-29T08:05:44.871Z,1.30
2018-11-29T08:08:13.138Z,1.40
2018-11-29T08:10:41.367Z,1.50
2018-11-29T08:18:06.676Z,1.60
2018-11-29T08:20:34.934Z,1.80
2018-11-29T08:23:03.264Z,1.80
2018-11-29T08:25:31.559Z,1.90
2018-11-29T08:27:59.820Z,2.00
2018-11-29T08:30:28.084Z,2.10
2018-11-29T08:32:56.405Z,2.20
2018-11-29T08:35:24.642Z,2.30
2018-11-29T08:37:52.907Z,2.20
2018-11-29T08:40:21.586Z,2.40
2018-11-29T08:42:49.856Z,2.40
2018-11-29T08:45:18.106Z,2.50
2018-11-29T08:47:46.571Z,2.60
2018-11-29T08:50:15.314Z,2.60
2018-11-29T08:52:45.343Z,2.60
2018-11-29T08:57:39.396Z,2.60
2018-11-29T09:00:26.509Z,2.80
2018-11-29T09:02:54.825Z,2.90
2018-11-29T09:05:23.090Z,3.00
2018-11-29T09:07:51.355Z,3.00
2018-11-29T09:10:20.827Z,3.10
2018-11-29T09:12:49.086Z,3.40
2018-11-29T09:15:17.831Z,3.30
2018-11-29T09:17:46.218Z,3.60
2018-11-29T09:20:15.510Z,3.40
2018-11-29T09:27:40.387Z,3.40
2018-11-29T09:30:14.079Z,3.50
2018-11-29T09:32:42.771Z,3.80
2018-11-29T09:35:11.135Z,3.80
2018-11-29T09:37:39.698Z,3.90
2018-11-29T09:40:10.819Z,4.00
2018-11-29T09:42:39.517Z,4.20
2018-11-29T09:45:12.177Z,4.20
2018-11-29T09:47:40.439Z,4.80
2018-11-29T09:50:10.551Z,5.00
2018-11-29T09:52:39.355Z,5.10
2018-11-29T09:55:09.584Z,4.90
2018-11-29T09:57:37.834Z,5.00
2018-11-29T10:00:27.041Z,4.90
2018-11-29T10:02:51.490Z,4.80
2018-11-29T10:05:19.737Z,5.00
2018-11-29T10:07:47.995Z,5.10
2018-11-29T10:10:16.223Z,5.10
2018-11-29T10:12:44.487Z,5.10
2018-11-29T10:15:13.039Z,5.20
2018-11-29T10:17:41.336Z,5.40
2018-11-29T10:20:10.796Z,5.50
2018-11-29T10:22:39.593Z,5.50
2018-11-29T10:25:13.252Z,5.70
2018-11-29T10:27:42.836Z,6.10
2018-11-29T10:30:18.177Z,6.30
2018-11-29T10:32:46.537Z,5.20
2018-11-29T10:35:14.745Z,7.00
2018-11-29T10:37:42.994Z,6.90
2018-11-29T10:40:11.325Z,6.80
2018-11-29T10:42:39.581Z,7.00
2018-11-29T10:47:37.105Z,7.20
2018-11-29T10:50:07.977Z,7.20
2018-11-29T10:52:36.219Z,7.30
2018-11-29T10:55:04.623Z,7.50
2018-11-29T10:57:32.927Z,7.50
2018-11-29T11:00:01.202Z,7.50
2018-11-29T11:02:30.188Z,7.60
2018-11-29T11:04:58.495Z,7.60
2018-11-29T11:07:26.800Z,7.50
2018-11-29T11:09:55.159Z,7.40
2018-11-29T11:12:23.431Z,7.40
2018-11-29T11:14:51.719Z,7.20
2018-11-29T11:17:20.013Z,7.30
2018-11-29T11:19:48.325Z,7.30
2018-11-29T11:22:16.673Z,7.40
2018-11-29T11:24:44.931Z,7.50
2018-11-29T11:27:13.196Z,7.60
2018-11-29T11:29:41.557Z,7.70
2018-11-29T11:32:09.814Z,7.70
2018-11-29T11:34:38.113Z,7.80
2018-11-29T11:37:06.300Z,7.80
2018-11-29T11:39:34.641Z,7.90
2018-11-29T11:42:02.953Z,7.80
2018-11-29T11:44:31.229Z,7.80
2018-11-29T11:46:59.493Z,7.80
2018-11-29T11:49:27.862Z,7.80
2018-11-29T11:51:56.108Z,7.90
2018-11-29T11:54:24.310Z,7.90
2018-11-29T11:56:52.618Z,7.90
2018-11-29T11:59:20.850Z,8.00
2018-11-29T12:01:49.169Z,7.90
2018-11-29T12:04:17.373Z,7.90
2018-11-29T12:06:45.604Z,7.80
2018-11-29T12:09:13.851Z,7.90
2018-11-29T12:11:42.101Z,7.90
2018-11-29T12:14:10.374Z,8.00
2018-11-29T12:16:38.742Z,8.00
2018-11-29T12:19:07.006Z,7.90
2018-11-29T12:21:35.267Z,7.80
2018-11-29T12:24:03.629Z,7.70
2018-11-29T12:26:31.969Z,7.70
2018-11-29T12:29:00.287Z,7.80
2018-11-29T12:31:28.621Z,7.80
2018-11-29T12:33:56.881Z,7.90
2018-11-29T12:36:25.299Z,7.80
2018-11-29T12:38:53.488Z,7.90
2018-11-29T12:41:21.732Z,7.90
2018-11-29T12:48:46.179Z,7.90
2018-11-29T12:51:14.460Z,7.90
2018-11-29T12:53:42.735Z,8.10
2018-11-29T12:56:11.166Z,8.10
2018-11-29T12:58:39.442Z,8.10
2018-11-29T13:01:07.672Z,8.00
2018-11-29T13:03:35.946Z,8.10
2018-11-29T13:06:04.243Z,8.00
2018-11-29T13:08:32.511Z,8.00
2018-11-29T13:11:00.749Z,7.90
2018-11-29T13:13:28.999Z,7.90
2018-11-29T13:15:57.262Z,8.00
2018-11-29T13:18:25.499Z,7.90
2018-11-29T13:21:00.336Z,7.90
2018-11-29T13:23:28.596Z,8.00
2018-11-29T13:25:56.862Z,8.00
2018-11-29T13:28:25.151Z,8.00
2018-11-29T13:30:53.639Z,7.80
2018-11-29T13:33:21.779Z,7.60
2018-11-29T13:35:50.048Z,7.50
2018-11-29T13:38:18.309Z,7.80
2018-11-29T13:40:49.101Z,7.40
2018-11-29T13:45:45.391Z,7.30
2018-11-29T13:48:14.034Z,7.30
2018-11-29T13:50:42.368Z,7.40
2018-11-29T13:53:10.553Z,7.30
2018-11-29T13:55:39.032Z,7.30
2018-11-29T13:58:07.241Z,7.30
2018-11-29T14:00:35.579Z,7.50
2018-11-29T14:03:09.164Z,7.50
2018-11-29T14:05:37.353Z,7.50
2018-11-29T14:08:06.637Z,7.60
2018-11-29T14:10:34.977Z,7.70
2018-11-29T14:13:03.255Z,7.70
2018-11-29T14:15:31.510Z,7.70
2018-11-29T14:17:59.685Z,7.70
2018-11-29T14:20:28.003Z,7.60
2018-11-29T14:22:56.228Z,7.50
2018-11-29T14:25:24.439Z,7.50
2018-11-29T14:27:54.886Z,7.40
2018-11-29T14:30:26.153Z,7.30
2018-11-29T14:32:55.578Z,7.20
2018-11-29T14:35:23.793Z,7.10
2018-11-29T14:37:52.067Z,7.20
2018-11-29T14:40:23.107Z,6.60
2018-11-29T14:42:51.671Z,6.80
2018-11-29T14:45:21.726Z,6.80
2018-11-29T14:47:49.994Z,6.70
2018-11-29T14:50:22.635Z,6.70
2018-11-29T14:55:18.983Z,6.60
2018-11-29T14:57:47.211Z,6.60
2018-11-29T15:00:15.435Z,6.60
2018-11-29T15:02:43.842Z,6.60
2018-11-29T15:05:16.458Z,6.70
2018-11-29T15:07:44.721Z,6.60
2018-11-29T15:10:12.979Z,6.50
2018-11-29T15:12:41.271Z,6.50
2018-11-29T15:15:11.471Z,6.50
2018-11-29T15:17:40.584Z,6.30
2018-11-29T15:20:13.215Z,6.30
2018-11-29T15:22:41.489Z,6.20
2018-11-29T15:25:09.713Z,6.00
2018-11-29T15:27:37.970Z,6.00
2018-11-29T15:30:09.608Z,5.90
2018-11-29T15:32:37.880Z,5.90
2018-11-29T15:35:06.692Z,5.90
2018-11-29T15:37:35.082Z,5.60
2018-11-29T15:40:03.275Z,5.60
2018-11-29T15:42:31.627Z,5.50
2018-11-29T15:44:59.859Z,5.50
2018-11-29T15:47:28.038Z,5.30
2018-11-29T15:49:56.316Z,5.40
2018-11-29T15:52:24.584Z,5.30
2018-11-29T16:04:44.835Z,4.90
2018-11-29T16:07:13.296Z,4.90
2018-11-29T16:09:41.772Z,4.90
2018-11-29T16:12:10.132Z,4.90
2018-11-29T16:14:38.667Z,4.90
2018-11-29T16:17:07.073Z,4.90
2018-11-29T16:19:35.477Z,4.80
2018-11-29T16:22:03.919Z,5.40
2018-11-29T16:24:32.368Z,4.70
2018-11-29T16:27:00.818Z,4.50
2018-11-29T16:29:29.210Z,4.50
2018-11-29T16:31:57.639Z,4.40
2018-11-29T16:34:26.070Z,4.40
2018-11-29T16:36:54.564Z,4.50
2018-11-29T16:39:23.176Z,4.40
2018-11-29T16:41:51.605Z,4.40
2018-11-29T16:44:20.064Z,4.50
2018-11-29T16:46:48.509Z,4.50
2018-11-29T16:49:16.946Z,4.40
2018-11-29T16:51:45.343Z,4.40
2018-11-29T17:01:38.270Z,4.30
2018-11-29T17:04:06.814Z,4.30
2018-11-29T17:06:35.236Z,4.30
2018-11-29T17:09:03.869Z,4.30
2018-11-29T17:11:32.294Z,4.30
2018-11-29T17:16:28.739Z,4.20
2018-11-29T17:18:57.175Z,4.20
2018-11-29T17:21:25.609Z,4.30
2018-11-29T17:23:54.060Z,4.20
2018-11-29T17:26:22.534Z,4.20
2018-11-29T17:28:50.828Z,4.20
2018-11-29T17:31:19.131Z,4.20
2018-11-29T17:33:47.379Z,4.20
2018-11-29T17:36:15.649Z,4.20
2018-11-29T17:38:44.004Z,4.20
2018-11-29T17:41:12.280Z,4.30
2018-11-29T17:43:40.532Z,4.50
2018-11-29T17:46:08.784Z,4.20
2018-11-29T17:48:37.066Z,4.20
2018-11-29T17:58:29.993Z,4.30
2018-11-29T18:00:58.257Z,4.30
2018-11-29T18:03:26.614Z,4.30
2018-11-29T18:05:55.006Z,4.20
2018-11-29T18:08:23.299Z,4.10
2018-11-29T18:10:54.175Z,4.10
2018-11-29T18:13:25.398Z,4.10
2018-11-29T18:15:53.783Z,4.10
2018-11-29T18:18:22.142Z,4.10
2018-11-29T18:20:50.481Z,4.10
2018-11-29T18:23:18.693Z,4.20
2018-11-29T18:25:46.960Z,4.20
2018-11-29T18:28:15.479Z,4.30
2018-11-29T18:30:43.663Z,4.20
2018-11-29T18:33:11.968Z,4.20
2018-11-29T18:35:40.273Z,4.20
2018-11-29T18:38:08.516Z,4.20
2018-11-29T18:40:36.762Z,4.10
2018-11-29T18:43:06.670Z,4.10
2018-11-29T18:45:34.924Z,4.10
2018-11-29T18:48:03.222Z,4.10
2018-11-29T18:50:31.487Z,4.20
2018-11-29T19:00:26.461Z,4.30
2018-11-29T19:02:57.075Z,4.30
2018-11-29T19:05:23.172Z,4.30
2018-11-29T19:07:51.444Z,4.40
2018-11-29T19:10:20.307Z,4.50
2018-11-29T19:12:57.967Z,4.50
2018-11-29T19:15:26.250Z,4.80
2018-11-29T19:17:54.509Z,4.60
2018-11-29T19:20:22.788Z,4.50
2018-11-29T19:22:51.036Z,4.60
2018-11-29T19:25:19.956Z,4.60
2018-11-29T19:27:48.350Z,4.60
2018-11-29T19:30:19.742Z,4.50
2018-11-29T19:32:50.005Z,4.50
2018-11-29T19:35:18.353Z,4.50
2018-11-29T19:37:46.631Z,4.50
2018-11-29T19:40:15.861Z,4.50
2018-11-29T19:42:44.210Z,4.50
2018-11-29T19:45:14.657Z,4.50
2018-11-29T19:47:42.972Z,4.50
2018-11-29T19:50:20.676Z,4.50
2018-11-29T19:52:52.043Z,4.50
2018-11-29T19:55:24.744Z,4.40
2018-11-29T19:57:53.166Z,4.40
2018-11-29T20:00:21.469Z,4.30
2018-11-29T20:02:51.217Z,4.30
2018-11-29T20:05:19.505Z,4.40
2018-11-29T20:07:47.915Z,4.40
2018-11-29T20:10:17.359Z,4.30
2018-11-29T20:12:46.883Z,4.30
2018-11-29T20:17:44.104Z,4.30
2018-11-29T20:20:12.578Z,4.30
2018-11-29T20:22:41.200Z,4.30
2018-11-29T20:25:16.545Z,4.30
2018-11-29T20:27:44.976Z,4.40
2018-11-29T20:30:21.009Z,4.60
2018-11-29T20:32:50.522Z,4.50
2018-11-29T20:35:19.010Z,4.40
2018-11-29T20:37:48.042Z,4.30
2018-11-29T20:40:21.489Z,4.30
2018-11-29T20:42:50.494Z,4.30
2018-11-29T20:45:22.172Z,4.40
2018-11-29T20:47:50.547Z,4.40
2018-11-29T20:50:19.966Z,4.30
2018-11-29T20:52:49.040Z,4.40
2018-11-29T20:55:22.423Z,4.40
2018-11-29T20:57:50.709Z,4.50
2018-11-29T21:00:19.020Z,4.50
2018-11-29T21:02:47.269Z,4.50
2018-11-29T21:05:16.829Z,4.60
2018-11-29T21:07:46.551Z,4.60
2018-11-29T21:10:17.176Z,4.60
2018-11-29T21:12:45.393Z,4.50
2018-11-29T21:15:13.636Z,4.50
2018-11-29T21:17:41.892Z,4.40
2018-11-29T21:20:12.562Z,4.40
2018-11-29T21:22:41.191Z,4.40
2018-11-29T21:25:11.841Z,4.40
2018-11-29T21:35:05.688Z,4.40
2018-11-29T21:37:34.027Z,4.40
2018-11-29T21:40:02.266Z,3.80
2018-11-29T21:42:30.519Z,4.50
2018-11-29T21:44:58.800Z,4.50
2018-11-29T21:47:27.100Z,4.40
2018-11-29T21:49:55.407Z,4.40
2018-11-29T21:52:23.755Z,4.40
2018-11-29T21:54:52.054Z,4.40
2018-11-29T21:57:20.324Z,4.30
2018-11-29T21:59:48.773Z,4.30
2018-11-29T22:02:16.976Z,4.40
2018-11-29T22:04:45.219Z,4.30
2018-11-29T22:07:13.483Z,4.40
2018-11-29T22:09:42.122Z,4.40
2018-11-29T22:12:10.389Z,4.30
2018-11-29T22:14:38.652Z,4.30
2018-11-29T22:17:06.931Z,4.20
2018-11-29T22:19:35.237Z,4.40
2018-11-29T22:22:03.518Z,4.30
2018-11-29T22:29:27.792Z,4.30
2018-11-29T22:31:56.102Z,4.30
2018-11-29T22:34:24.360Z,4.40
2018-11-29T22:36:52.647Z,4.40
2018-11-29T22:41:49.011Z,4.40
2018-11-29T22:44:17.216Z,4.40
2018-11-29T22:46:45.532Z,4.40
2018-11-29T22:49:13.854Z,4.40
2018-11-29T22:51:42.078Z,4.30
2018-11-29T22:54:10.389Z,4.40
2018-11-29T22:56:38.582Z,4.40
2018-11-29T22:59:06.908Z,4.40
2018-11-29T23:01:35.252Z,4.40
2018-11-29T23:04:03.590Z,4.40
2018-11-29T23:06:31.985Z,4.40
2018-11-29T23:09:00.291Z,4.40
2018-11-29T23:11:28.590Z,4.50
2018-11-29T23:13:56.928Z,4.50
2018-11-29T23:16:25.282Z,4.60
2018-11-29T23:18:53.537Z,4.60
2018-11-29T23:21:21.905Z,4.60
2018-11-29T23:23:50.160Z,4.60
2018-11-29T23:31:14.651Z,4.50
2018-11-29T23:33:43.072Z,4.40
2018-11-29T23:36:11.377Z,4.40
2018-11-29T23:38:39.773Z,4.40
2018-11-29T23:41:08.076Z,4.50
2018-11-29T23:43:36.430Z,4.40
2018-11-29T23:46:04.792Z,4.40
2018-11-29T23:48:33.089Z,4.40
2018-11-29T23:51:01.514Z,4.30
2018-11-29T23:53:29.736Z,4.30
2018-11-29T23:55:58.067Z,4.40
2018-11-29T23:58:26.336Z,4.50
